Airfield :







YOU CAN JOIN US ON...

 
LOGIN :

Register | Disclaimer

   EN    FR    IT 

 









Legend :    VFR   Marginal VFR   IFR   Intensive IFR   Very Intensive IFR
Visi :
Ceiling :
>= 8 km
>= 3000ft
5 to 8 km
1000 to 3000 ft
1500m to 5 km
500 to 1000 ft
800 to 1500m
200 to 500 ft
< 800m
< 200 ft
Symbols :   Thunderstorms  Fog  Heavy snow  Heavy precipitations  Wind > 20 kt






- Airport Elevation : 488 ft
- IATA code : EEN


KEEN - Dillant Hopkins

CURRENT METAR :
  • 261122Z AUTO 4SM BR OVC003 12/12 A2983 RMK AO2 $

EXPIRED METARs :
  • 261115Z AUTO 00000KT 3/4SM BR OVC003 12/12 A2983 RMK AO2 $
  • 261054Z AUTO 00000KT 1/4SM FG OVC003 12/12 A2983 RMK AO2 SLP104 T01220122 $
  • 261041Z AUTO 31003KT 3/4SM BR OVC003 12/12 A2983 RMK AO2 $
  • 261031Z AUTO 00000KT 3SM BR OVC003 12/12 A2982 RMK AO2 $
  • 261026Z AUTO 00000KT 1 1/4SM BR OVC003 12/12 A2983 RMK AO2 VIS 3/4V2 1/2 $
  • 260956Z AUTO 00000KT 7SM OVC003 12/12 A2983 RMK AO2 SLP105 T01220122 $
  • 260944Z AUTO 00000KT 1 1/4SM BR OVC003 12/12 A2983 RMK AO2 $
  • 260934Z AUTO 00000KT 3/4SM BR OVC003 12/12 A2983 RMK AO2 $
  • 260930Z AUTO 00000KT 1 1/4SM BR OVC003 12/12 A2983 RMK AO2 $
  • 260909Z AUTO 00000KT 1/2SM FG OVC003 12/12 A2983 RMK AO2 $
  • 260856Z AUTO 00000KT 1/4SM FG OVC003 12/12 A2983 RMK AO2 SLP104 T01170117 56014 $

TAF N/A
KZBW FIR / North America



MET'MAP, your aeronautical weather chart ! - Copyright ORBIFLY December 2007 - Disclaimer

ORBIFLY MET'MAP TEAM :

Programming & Development : Alexandra Zaïnal
Concept & original design : Baudouin d'Aumeries
Assistance for programming : Marc-Olivier Méhu
Technical & hardware support : Manuel Goepfert

Contact : metmap@orbifly.com




SOURCES & CREDITS :

   NOAA